Pagina principale
METAR-TAF:

METAR-TAF

Aeroporti :

Montichiari

Brescia, Italia

latitudine: 45-24-02N, longitudine: 010-18-59E, altezza: 104 m

Osservazione

Il bollettino è stato emesso 1 ora e 26 minuti fa, alle 23:50 UTC
Vento 13 kt da est
Temperature 14°C
Umidità 77%
Pressione 1006 hPa
Visibilità: 6000 m
Nuvoloso ad un'altezza di 5000 ft
pioggia

METAR: LIPO 222350Z 08013KT 6000 RA BKN050 14/10 Q1006

Ora: 03:16 (01:16 UTC)

Previsione

Il bollettino è stato emesso 2 ore e 16 minuti fa, alle 23:00 UTC
Previsione valida dal 23 alle 00 UTC al 23 alle 24 UTC
Vento 13 kt da est/sud-est
Visibilità: 6000 m
Nuvoloso ad un'altezza di 2000 ft
Nuvoloso ad un'altezza di 5000 ft
pioggia

TAF: LIPO 222300Z 2300/2324 12013KT 6000 RA BKN020 BKN050

Osservazioni e previsioni meteorologiche di più di 4000 aeroporti (messaggi METAR e TAF).

Le stazioni disponibili sono rappresentate dai dischi gialli e rossi sulla carta.

Puntare il mouse per vedere il nome della stazione.

Clicca sopra per visualizzare le osservazioni e previsioni meteorologiche.

Per cambiare la mappa : fare clic sui pulsanti verdi con una croce nera per ingrandire, il pulsante verde con un trattino per diminuire, o sulla freccia verde per le mappe adiacenti.


METAR-TAF: